createdAt,value
2023-04-16T15:01:08.002Z,2.92
2023-04-16T15:02:10.841Z,2.42
2023-04-16T15:03:13.191Z,1.83
2023-04-16T15:04:15.330Z,1.52
2023-04-16T15:05:17.504Z,3.25
2023-04-16T15:06:19.361Z,1.73
2023-04-16T15:07:22.239Z,1.48
2023-04-16T15:08:24.712Z,3.35
2023-04-16T15:09:29.975Z,2.55
2023-04-16T15:10:32.944Z,1.95
2023-04-16T15:11:35.119Z,2.25
2023-04-16T15:12:37.953Z,3.78
2023-04-16T15:13:40.051Z,1.73
2023-04-16T15:14:43.388Z,1.83
2023-04-16T15:15:45.474Z,2.10
2023-04-16T15:16:48.031Z,2.28
2023-04-16T15:17:51.096Z,4.95
2023-04-16T15:18:53.099Z,1.48
2023-04-16T15:19:55.012Z,1.63
2023-04-16T15:20:56.961Z,6.80
2023-04-16T15:21:59.403Z,2.28
2023-04-16T15:23:01.589Z,3.92
2023-04-16T15:24:03.629Z,3.08
2023-04-16T15:25:06.806Z,2.03
2023-04-16T15:26:08.725Z,2.15
2023-04-16T15:27:11.979Z,1.80
2023-04-16T15:28:14.219Z,1.30
2023-04-16T15:29:16.201Z,2.55
2023-04-16T15:30:18.230Z,3.28
2023-04-16T15:31:21.126Z,1.63
2023-04-16T15:32:23.140Z,2.22
2023-04-16T15:33:26.396Z,1.52
2023-04-16T15:34:28.460Z,3.40
2023-04-16T15:35:30.632Z,1.83
2023-04-16T15:36:32.694Z,3.88
2023-04-16T15:37:34.612Z,2.03
2023-04-16T15:38:36.651Z,2.45
2023-04-16T15:39:38.604Z,2.30
2023-04-16T15:40:41.306Z,8.13
2023-04-16T15:41:57.444Z,3.42
2023-04-16T15:43:03.028Z,4.72
2023-04-16T15:44:06.020Z,4.45
2023-04-16T15:45:07.993Z,4.13
2023-04-16T15:46:10.184Z,3.55
2023-04-16T15:47:12.342Z,4.78
2023-04-16T15:48:14.411Z,2.95
2023-04-16T15:49:16.472Z,3.90
2023-04-16T15:50:19.576Z,4.22
2023-04-16T15:51:21.400Z,3.65
2023-04-16T15:52:23.386Z,4.03
2023-04-16T15:53:25.295Z,7.28
2023-04-16T15:54:27.354Z,7.78
2023-04-16T15:55:29.381Z,4.85
2023-04-16T15:56:32.693Z,5.68
2023-04-16T15:57:34.597Z,4.88
2023-04-16T15:58:36.662Z,4.65
2023-04-16T15:59:38.584Z,3.28
2023-04-16T16:00:40.498Z,6.28
2023-04-16T16:01:42.422Z,3.92
2023-04-16T16:02:45.716Z,5.45
2023-04-16T16:03:47.995Z,5.00
2023-04-16T16:04:50.018Z,6.22
2023-04-16T16:05:51.976Z,5.90
2023-04-16T16:06:54.193Z,4.13
2023-04-16T16:07:57.445Z,5.28
2023-04-16T16:08:59.770Z,6.20
2023-04-16T16:10:02.020Z,6.25
2023-04-16T16:11:05.124Z,7.10
2023-04-16T16:12:07.037Z,8.52
2023-04-16T16:13:13.162Z,6.55
2023-04-16T16:14:16.793Z,4.35
2023-04-16T16:15:20.232Z,5.32
2023-04-16T16:16:22.268Z,6.90
2023-04-16T16:17:24.966Z,9.50
2023-04-16T16:18:26.892Z,10.15
2023-04-16T16:19:28.754Z,10.32
2023-04-16T16:20:30.697Z,9.82
2023-04-16T16:21:32.924Z,9.57
2023-04-16T16:22:35.006Z,21.48
2023-04-16T16:23:37.118Z,11.52
2023-04-16T16:24:39.358Z,9.27
2023-04-16T16:25:42.761Z,12.82
2023-04-16T16:26:44.659Z,13.75
2023-04-16T16:27:46.677Z,14.13
2023-04-16T16:28:48.578Z,13.18
2023-04-16T16:29:50.505Z,12.43
2023-04-16T16:30:54.895Z,12.57
2023-04-16T16:31:57.004Z,15.30
2023-04-16T16:32:59.008Z,12.07
2023-04-16T16:34:01.261Z,14.55
2023-04-16T16:35:03.562Z,14.13
2023-04-16T16:36:09.681Z,11.85
2023-04-16T16:37:11.530Z,14.80
2023-04-16T16:38:13.399Z,13.20
2023-04-16T16:39:15.215Z,12.32
2023-04-16T16:40:17.213Z,14.07
2023-04-16T16:41:19.191Z,14.20
2023-04-16T16:42:21.214Z,12.05
2023-04-16T16:43:23.177Z,11.60
2023-04-16T16:44:25.237Z,14.23
2023-04-16T16:45:27.339Z,12.85
2023-04-16T16:46:29.696Z,12.93
2023-04-16T16:47:32.508Z,13.10
2023-04-16T16:48:34.322Z,11.65
2023-04-16T16:49:36.153Z,11.85
2023-04-16T16:50:38.154Z,9.60
2023-04-16T16:51:40.255Z,15.15
2023-04-16T16:52:42.231Z,14.95
2023-04-16T16:53:44.058Z,16.73
2023-04-16T16:54:45.983Z,22.90
2023-04-16T16:55:47.835Z,21.00
2023-04-16T16:56:49.694Z,22.27
2023-04-16T16:57:51.708Z,19.60
2023-04-16T16:58:53.876Z,21.17
2023-04-16T16:59:55.742Z,19.17
2023-04-16T17:00:57.897Z,17.70
2023-04-16T17:01:59.792Z,17.02
2023-04-16T17:03:02.150Z,16.27
2023-04-16T17:04:04.367Z,17.73
2023-04-16T17:05:07.730Z,15.02
2023-04-16T17:06:09.727Z,15.45
2023-04-16T17:07:12.048Z,14.40
2023-04-16T17:08:14.098Z,12.38
2023-04-16T17:09:16.953Z,17.67
2023-04-16T17:10:22.131Z,18.35
2023-04-16T17:11:27.077Z,17.23
2023-04-16T17:12:29.116Z,20.10
2023-04-16T17:13:32.840Z,21.35
2023-04-16T17:14:35.531Z,16.50
2023-04-16T17:15:37.442Z,13.52
2023-04-16T17:16:39.486Z,15.43
2023-04-16T17:17:41.767Z,21.75
2023-04-16T17:18:43.809Z,17.88
2023-04-16T17:19:45.630Z,15.35
2023-04-16T17:20:47.405Z,17.48
2023-04-16T17:21:49.461Z,15.77
2023-04-16T17:22:51.315Z,16.15
2023-04-16T17:23:54.567Z,11.30
2023-04-16T17:24:56.384Z,15.35
2023-04-16T17:25:59.924Z,13.43
2023-04-16T17:27:02.253Z,17.90
2023-04-16T17:28:05.196Z,9.52
2023-04-16T17:29:07.217Z,10.45
2023-04-16T17:30:09.597Z,14.90
2023-04-16T17:31:11.990Z,15.05
2023-04-16T17:32:14.003Z,11.20
2023-04-16T17:33:17.330Z,15.93
2023-04-16T17:34:20.697Z,9.80
2023-04-16T17:35:22.712Z,15.57
2023-04-16T17:36:25.526Z,11.13
2023-04-16T17:37:27.539Z,9.68
2023-04-16T17:38:29.434Z,11.00
2023-04-16T17:39:31.304Z,8.93
2023-04-16T17:40:33.329Z,10.05
2023-04-16T17:41:35.285Z,10.85
2023-04-16T17:42:37.390Z,10.40
2023-04-16T17:43:39.194Z,7.85
2023-04-16T17:44:41.159Z,13.23
2023-04-16T17:45:43.058Z,10.57
2023-04-16T17:46:44.947Z,9.25
2023-04-16T17:47:46.845Z,8.05
2023-04-16T17:48:49.014Z,5.20
2023-04-16T17:49:54.647Z,6.00
2023-04-16T17:50:56.681Z,5.40
2023-04-16T17:51:58.627Z,8.38
2023-04-16T17:53:03.906Z,8.93
2023-04-16T17:54:07.290Z,9.98
2023-04-16T17:55:11.577Z,5.57
2023-04-16T17:56:14.220Z,10.85
2023-04-16T17:57:16.559Z,4.82
2023-04-16T17:58:18.474Z,7.90
2023-04-16T17:59:20.324Z,7.00
2023-04-16T18:00:22.381Z,7.88
2023-04-16T18:01:24.431Z,8.75
2023-04-16T18:02:26.662Z,10.60
2023-04-16T18:03:29.188Z,12.68
2023-04-16T18:04:31.450Z,7.45
2023-04-16T18:05:33.391Z,9.23
2023-04-16T18:06:35.699Z,11.05
2023-04-16T18:07:39.249Z,10.32
2023-04-16T18:08:41.135Z,10.32
2023-04-16T18:09:43.218Z,8.05
2023-04-16T18:10:45.114Z,7.38
2023-04-16T18:11:47.331Z,17.58
2023-04-16T18:12:49.286Z,10.23
2023-04-16T18:13:53.695Z,6.90
2023-04-16T18:14:55.647Z,7.07
2023-04-16T18:15:57.498Z,10.48
2023-04-16T18:17:00.035Z,9.23
2023-04-16T18:18:01.909Z,9.07
2023-04-16T18:19:03.940Z,20.55
2023-04-16T18:20:07.119Z,8.70
2023-04-16T18:21:09.315Z,12.10
2023-04-16T18:22:13.330Z,10.80
2023-04-16T18:23:15.137Z,7.00
2023-04-16T18:24:16.999Z,6.60
2023-04-16T18:25:21.034Z,8.60
2023-04-16T18:26:35.539Z,12.63
2023-04-16T18:27:38.060Z,11.40
2023-04-16T18:28:40.024Z,11.07
2023-04-16T18:29:45.018Z,8.70
2023-04-16T18:30:47.210Z,11.00
2023-04-16T18:31:50.665Z,9.07
2023-04-16T18:33:16.464Z,11.27
2023-04-16T18:34:14.363Z,11.82
2023-04-16T18:35:16.501Z,11.00
2023-04-16T18:36:18.413Z,13.60
2023-04-16T18:37:20.352Z,14.20
2023-04-16T18:38:22.152Z,19.85
2023-04-16T18:39:24.107Z,11.43
2023-04-16T18:40:26.168Z,15.35
2023-04-16T18:41:28.159Z,11.60
2023-04-16T18:42:29.969Z,16.85
2023-04-16T18:43:31.792Z,13.13
2023-04-16T18:44:34.312Z,15.40
2023-04-16T18:45:36.535Z,13.18
2023-04-16T18:46:38.373Z,11.95
2023-04-16T18:47:41.397Z,9.57
2023-04-16T18:48:45.252Z,7.60
2023-04-16T18:49:47.172Z,16.38
2023-04-16T18:50:48.961Z,10.90
2023-04-16T18:51:51.176Z,9.25
2023-04-16T18:52:53.171Z,10.10
2023-04-16T18:53:55.051Z,12.50
2023-04-16T18:54:56.918Z,12.82
2023-04-16T18:55:59.589Z,13.57
2023-04-16T18:57:02.133Z,16.52
2023-04-16T18:58:04.040Z,15.10
2023-04-16T18:59:05.936Z,18.85
2023-04-16T19:00:12.639Z,9.65
2023-04-16T19:01:14.705Z,9.65
2023-04-16T19:02:16.632Z,12.82
2023-04-16T19:03:18.520Z,10.75
2023-04-16T19:04:21.071Z,14.05
2023-04-16T19:05:23.143Z,18.50
2023-04-16T19:06:25.021Z,12.02
2023-04-16T19:07:26.970Z,17.88
2023-04-16T19:08:28.821Z,13.88
2023-04-16T19:09:30.861Z,15.35
2023-04-16T19:10:32.848Z,10.25
2023-04-16T19:11:34.700Z,11.70
2023-04-16T19:12:36.622Z,11.25
2023-04-16T19:13:39.330Z,9.65
2023-04-16T19:14:41.174Z,13.98
2023-04-16T19:15:43.029Z,14.32
2023-04-16T19:16:44.887Z,14.38
2023-04-16T19:17:47.288Z,18.33
2023-04-16T19:18:49.206Z,16.45
2023-04-16T19:19:51.044Z,20.88
2023-04-16T19:20:59.631Z,16.85
2023-04-16T19:22:01.664Z,14.68
2023-04-16T19:23:05.741Z,13.45
2023-04-16T19:25:09.848Z,13.35
2023-04-16T19:26:11.673Z,15.70
2023-04-16T19:27:13.537Z,16.02
2023-04-16T19:28:15.396Z,15.95
2023-04-16T19:29:18.295Z,15.00
2023-04-16T19:30:20.207Z,12.07
2023-04-16T19:31:22.047Z,17.02
2023-04-16T19:32:24.440Z,13.65
2023-04-16T19:33:26.314Z,17.02
2023-04-16T19:34:28.281Z,15.30
2023-04-16T19:35:30.306Z,16.77
2023-04-16T19:36:32.837Z,13.45
2023-04-16T19:37:34.674Z,15.80
2023-04-16T19:38:36.507Z,18.25
2023-04-16T19:39:38.725Z,14.05
2023-04-16T19:40:41.159Z,12.50
2023-04-16T19:41:43.112Z,16.45
2023-04-16T19:42:45.509Z,18.52
2023-04-16T19:43:47.372Z,12.25
2023-04-16T19:44:49.189Z,16.27
2023-04-16T19:45:53.525Z,11.18
2023-04-16T19:46:55.871Z,13.95
2023-04-16T19:47:58.154Z,16.30
2023-04-16T19:49:00.083Z,13.20
2023-04-16T19:50:02.335Z,20.23
2023-04-16T19:51:05.766Z,16.95
2023-04-16T19:52:07.683Z,23.80
2023-04-16T19:53:09.858Z,21.02
2023-04-16T19:54:13.275Z,19.95
2023-04-16T19:55:15.507Z,21.52
2023-04-16T19:56:17.749Z,15.70
2023-04-16T19:57:19.684Z,16.95
2023-04-16T19:58:21.536Z,15.32
2023-04-16T19:59:23.469Z,15.35
2023-04-16T20:00:25.491Z,16.52
2023-04-16T20:01:28.268Z,14.48
2023-04-16T20:02:30.241Z,14.45
2023-04-16T20:03:32.196Z,17.05
2023-04-16T20:04:35.197Z,12.68
2023-04-16T20:05:37.329Z,16.58
2023-04-16T20:06:39.178Z,15.18
2023-04-16T20:07:41.087Z,14.95
2023-04-16T20:08:44.605Z,11.32
2023-04-16T20:09:52.049Z,13.20
2023-04-16T20:10:54.832Z,13.98
2023-04-16T20:11:58.100Z,12.18
2023-04-16T20:12:59.913Z,11.75
2023-04-16T20:14:01.843Z,17.35
2023-04-16T20:15:04.542Z,12.90
2023-04-16T20:16:09.442Z,12.02
2023-04-16T20:17:11.365Z,8.43
2023-04-16T20:18:13.685Z,13.45
2023-04-16T20:19:17.196Z,10.32
2023-04-16T20:20:19.224Z,7.88
2023-04-16T20:21:21.768Z,12.85
2023-04-16T20:22:23.654Z,12.32
2023-04-16T20:23:25.570Z,11.57
2023-04-16T20:24:28.320Z,15.48
2023-04-16T20:25:30.154Z,10.45
2023-04-16T20:26:34.213Z,13.05
2023-04-16T20:27:36.434Z,11.55
2023-04-16T20:28:38.266Z,18.25
2023-04-16T20:29:40.212Z,16.10
2023-04-16T20:30:42.449Z,17.92
2023-04-16T20:31:46.123Z,22.77
2023-04-16T20:32:48.419Z,15.10
2023-04-16T20:33:50.364Z,13.48
2023-04-16T20:34:52.934Z,16.48
2023-04-16T20:35:55.016Z,18.70
2023-04-16T20:36:58.224Z,15.00
2023-04-16T20:38:00.785Z,13.13
2023-04-16T20:39:02.687Z,15.68
2023-04-16T20:40:07.983Z,22.60
2023-04-16T20:41:14.669Z,17.58
2023-04-16T20:42:17.056Z,19.80
2023-04-16T20:43:18.921Z,18.80
2023-04-16T20:44:26.225Z,24.38
2023-04-16T20:45:38.136Z,32.13
2023-04-16T20:46:40.367Z,17.45
2023-04-16T20:47:43.711Z,25.30
2023-04-16T20:48:45.752Z,26.27
2023-04-16T20:49:47.650Z,23.48
2023-04-16T20:50:49.401Z,20.65
2023-04-16T20:51:51.506Z,23.90
2023-04-16T20:52:53.441Z,28.60
2023-04-16T20:53:55.639Z,23.88
2023-04-16T20:54:57.957Z,21.90
2023-04-16T20:56:00.637Z,31.70
2023-04-16T20:57:04.892Z,21.65
2023-04-16T20:58:07.125Z,24.45
2023-04-16T20:59:09.885Z,23.33
2023-04-16T21:00:12.479Z,24.30
2023-04-16T21:01:14.268Z,22.77
2023-04-16T21:02:16.514Z,23.67
2023-04-16T21:03:19.172Z,22.45
2023-04-16T21:04:21.367Z,15.13
2023-04-16T21:05:23.984Z,25.48
2023-04-16T21:06:25.832Z,18.85
2023-04-16T21:07:27.828Z,23.42
2023-04-16T21:08:29.775Z,20.15
2023-04-16T21:09:31.810Z,22.23
2023-04-16T21:10:33.662Z,20.50
2023-04-16T21:11:35.978Z,16.75
2023-04-16T21:12:37.929Z,24.20
2023-04-16T21:13:39.722Z,14.70
2023-04-16T21:14:41.635Z,18.02
2023-04-16T21:15:45.676Z,18.35
2023-04-16T21:17:49.225Z,22.35
2023-04-16T21:18:51.060Z,19.65
2023-04-16T21:19:53.027Z,19.35
2023-04-16T21:20:56.086Z,19.75
2023-04-16T21:21:58.068Z,15.13
2023-04-16T21:23:00.440Z,16.40
2023-04-16T21:24:02.312Z,23.35
2023-04-16T21:25:04.572Z,31.98
2023-04-16T21:26:06.360Z,26.27
2023-04-16T21:27:08.314Z,24.50
2023-04-16T21:28:10.145Z,33.53
2023-04-16T21:29:12.250Z,22.88
2023-04-16T21:30:14.773Z,33.92
2023-04-16T21:31:16.967Z,24.10
2023-04-16T21:32:18.920Z,30.67
2023-04-16T21:33:20.944Z,28.10
2023-04-16T21:34:22.742Z,38.95
2023-04-16T21:35:24.661Z,30.27
2023-04-16T21:36:27.650Z,35.40
2023-04-16T21:37:29.604Z,36.35
2023-04-16T21:38:31.476Z,33.25
2023-04-16T21:39:33.317Z,36.55
2023-04-16T21:40:35.143Z,31.15
2023-04-16T21:41:37.229Z,39.22
2023-04-16T21:42:42.494Z,29.20
2023-04-16T21:43:44.329Z,43.33
2023-04-16T21:44:46.633Z,40.53
2023-04-16T21:45:48.437Z,33.47
2023-04-16T21:46:50.561Z,33.63
2023-04-16T21:47:52.540Z,36.40
2023-04-16T21:48:54.438Z,48.35
2023-04-16T21:49:56.261Z,41.42
2023-04-16T21:51:00.150Z,34.95
2023-04-16T21:52:02.536Z,42.88
2023-04-16T21:53:06.698Z,47.30
2023-04-16T21:54:08.776Z,49.38
2023-04-16T21:55:10.620Z,42.47
2023-04-16T21:56:12.586Z,40.13
2023-04-16T21:57:14.844Z,46.17
2023-04-16T21:58:16.817Z,46.22
2023-04-16T21:59:18.742Z,50.95
2023-04-16T22:00:21.321Z,30.75
2023-04-16T22:01:23.400Z,33.33
2023-04-16T22:02:25.533Z,38.05
2023-04-16T22:03:28.151Z,31.77
2023-04-16T22:04:37.522Z,31.52
2023-04-16T22:05:39.438Z,32.92
2023-04-16T22:06:41.324Z,30.17
2023-04-16T22:07:43.253Z,30.30
2023-04-16T22:08:45.120Z,30.45
2023-04-16T22:09:46.993Z,33.17
2023-04-16T22:10:48.799Z,40.72
2023-04-16T22:11:52.643Z,41.00
2023-04-16T22:12:55.023Z,37.90
2023-04-16T22:13:58.027Z,29.85
2023-04-16T22:15:02.884Z,37.63
2023-04-16T22:16:05.816Z,38.03
2023-04-16T22:17:09.496Z,45.17
2023-04-16T22:18:11.747Z,34.22
2023-04-16T22:19:14.228Z,31.10
2023-04-16T22:20:16.617Z,29.95
2023-04-16T22:21:18.451Z,34.53
2023-04-16T22:22:21.922Z,31.08
2023-04-16T22:23:25.302Z,24.63
2023-04-16T22:24:28.319Z,36.00
2023-04-16T22:25:30.120Z,29.52
2023-04-16T22:26:31.937Z,23.83
2023-04-16T22:27:34.299Z,27.98
2023-04-16T22:28:36.187Z,30.13
2023-04-16T22:29:38.268Z,26.48
2023-04-16T22:30:40.319Z,26.20
2023-04-16T22:31:42.183Z,25.10
2023-04-16T22:32:44.123Z,29.83
2023-04-16T22:33:45.950Z,26.40
2023-04-16T22:34:47.782Z,38.80
2023-04-16T22:35:49.718Z,28.42
2023-04-16T22:36:51.514Z,35.15
2023-04-16T22:37:53.336Z,31.63
2023-04-16T22:38:55.335Z,39.97
2023-04-16T22:39:57.110Z,26.63
2023-04-16T22:40:59.150Z,32.35
2023-04-16T22:42:01.976Z,28.90
2023-04-16T22:43:03.991Z,29.40
2023-04-16T22:44:06.011Z,29.35
2023-04-16T22:45:08.549Z,37.15
2023-04-16T22:46:10.466Z,27.38
2023-04-16T22:47:12.322Z,27.33
2023-04-16T22:48:14.234Z,26.15
2023-04-16T22:49:16.024Z,27.55
2023-04-16T22:50:18.580Z,28.90
2023-04-16T22:51:24.354Z,33.90
2023-04-16T22:52:27.576Z,24.55
2023-04-16T22:53:29.369Z,24.42
2023-04-16T22:54:31.565Z,32.28
2023-04-16T22:55:33.463Z,34.05
2023-04-16T22:56:35.879Z,33.25
2023-04-16T22:57:37.684Z,26.23
2023-04-16T22:58:39.751Z,28.55
2023-04-16T22:59:41.592Z,29.17
2023-04-16T23:00:43.647Z,33.78
2023-04-16T23:01:45.637Z,27.85
2023-04-16T23:02:47.992Z,24.25
2023-04-16T23:03:50.052Z,25.98
2023-04-16T23:04:51.867Z,29.77
2023-04-16T23:05:53.781Z,22.33
2023-04-16T23:06:55.948Z,25.45
2023-04-16T23:07:57.789Z,21.88
2023-04-16T23:08:59.691Z,26.92
2023-04-16T23:10:01.586Z,21.55
2023-04-16T23:11:03.767Z,29.25
2023-04-16T23:12:06.043Z,21.67
2023-04-16T23:13:07.879Z,17.42
2023-04-16T23:14:09.866Z,16.52
2023-04-16T23:15:11.795Z,21.85
2023-04-16T23:16:13.856Z,23.20
2023-04-16T23:17:15.911Z,24.40
2023-04-16T23:18:17.864Z,23.77
2023-04-16T23:19:19.729Z,24.17
2023-04-16T23:20:21.697Z,20.48
2023-04-16T23:21:23.637Z,19.17
2023-04-16T23:22:25.474Z,21.38
2023-04-16T23:23:27.394Z,16.38
2023-04-16T23:24:29.306Z,21.35
2023-04-16T23:25:31.148Z,22.63
2023-04-16T23:26:33.091Z,20.23
2023-04-16T23:27:35.887Z,21.60
2023-04-16T23:28:37.724Z,20.92
2023-04-16T23:29:39.846Z,24.83
2023-04-16T23:30:41.703Z,18.08
2023-04-16T23:31:43.574Z,23.88
2023-04-16T23:32:45.511Z,24.00
2023-04-16T23:33:47.666Z,23.05
2023-04-16T23:34:49.617Z,17.10
2023-04-16T23:35:51.515Z,23.15
2023-04-16T23:36:53.553Z,18.75
2023-04-16T23:37:55.412Z,25.02
2023-04-16T23:38:57.243Z,25.42
2023-04-16T23:39:59.024Z,27.83
2023-04-16T23:41:01.056Z,20.63
2023-04-16T23:42:03.308Z,21.45
2023-04-16T23:43:05.148Z,22.10
2023-04-16T23:44:06.954Z,23.55
2023-04-16T23:45:09.810Z,28.92
2023-04-16T23:46:12.054Z,18.60
2023-04-16T23:47:13.906Z,23.55
2023-04-16T23:48:15.923Z,17.08
2023-04-16T23:49:17.817Z,27.60
2023-04-16T23:50:19.686Z,25.20
2023-04-16T23:51:21.674Z,30.42
2023-04-16T23:52:23.469Z,20.92
2023-04-16T23:53:25.643Z,30.45
2023-04-16T23:54:27.562Z,16.08
2023-04-16T23:55:29.450Z,28.60
2023-04-16T23:56:31.543Z,16.88
2023-04-16T23:57:33.331Z,20.55
2023-04-16T23:58:35.256Z,20.20
2023-04-16T23:59:37.023Z,21.02
